createdAt,value
2022-08-21T00:01:51.568Z,17.80
2022-08-21T00:04:22.164Z,17.80
2022-08-21T00:06:53.923Z,17.80
2022-08-21T00:09:21.098Z,17.80
2022-08-21T00:11:49.016Z,17.78
2022-08-21T00:14:16.962Z,17.75
2022-08-21T00:16:43.995Z,17.74
2022-08-21T00:19:11.071Z,17.70
2022-08-21T00:21:38.200Z,17.66
2022-08-21T00:24:05.995Z,17.61
2022-08-21T00:26:34.754Z,17.59
2022-08-21T00:29:05.128Z,17.55
2022-08-21T00:31:32.173Z,17.51
2022-08-21T00:34:00.844Z,17.50
2022-08-21T00:36:29.178Z,17.48
2022-08-21T00:38:56.635Z,17.46
2022-08-21T00:41:37.387Z,17.42
2022-08-21T00:44:06.347Z,17.49
2022-08-21T00:46:33.352Z,17.33
2022-08-21T00:49:00.234Z,17.30
2022-08-21T00:51:38.298Z,17.28
2022-08-21T00:54:18.292Z,17.23
2022-08-21T00:56:53.847Z,17.22
2022-08-21T00:59:22.801Z,17.14
2022-08-21T01:01:50.532Z,17.09
2022-08-21T01:04:18.059Z,17.07
2022-08-21T01:06:45.400Z,17.02
2022-08-21T01:09:14.304Z,16.97
2022-08-21T01:11:44.062Z,16.95
2022-08-21T01:14:13.981Z,16.92
2022-08-21T01:16:45.674Z,16.90
2022-08-21T01:19:13.662Z,16.82
2022-08-21T01:21:40.546Z,16.79
2022-08-21T01:24:07.927Z,16.75
2022-08-21T01:26:36.374Z,16.73
2022-08-21T01:29:41.373Z,16.77
2022-08-21T01:32:11.579Z,16.69
2022-08-21T01:34:41.350Z,16.66
2022-08-21T01:37:08.848Z,16.65
2022-08-21T01:39:36.889Z,16.61
2022-08-21T01:42:05.046Z,16.61
2022-08-21T01:44:32.741Z,16.58
2022-08-21T01:47:02.594Z,16.60
2022-08-21T01:49:29.489Z,16.56
2022-08-21T01:51:56.544Z,16.52
2022-08-21T01:54:23.688Z,16.52
2022-08-21T01:56:53.457Z,16.54
2022-08-21T01:59:21.624Z,16.54
2022-08-21T02:01:48.553Z,16.55
2022-08-21T02:04:15.424Z,16.54
2022-08-21T02:06:42.636Z,16.53
2022-08-21T02:09:11.563Z,16.51
2022-08-21T02:11:41.628Z,16.50
2022-08-21T02:14:14.021Z,16.48
2022-08-21T02:16:43.725Z,16.48
2022-08-21T02:19:12.688Z,16.46
2022-08-21T02:21:39.838Z,16.45
2022-08-21T02:24:07.405Z,16.45
2022-08-21T02:26:34.501Z,16.45
2022-08-21T02:29:01.746Z,16.43
2022-08-21T02:31:28.747Z,16.42
2022-08-21T02:33:55.924Z,16.41
2022-08-21T02:36:22.838Z,16.39
2022-08-21T02:38:50.504Z,16.37
2022-08-21T02:41:20.197Z,16.37
2022-08-21T02:43:47.412Z,16.36
2022-08-21T02:46:17.076Z,16.37
2022-08-21T02:48:44.399Z,16.35
2022-08-21T02:51:15.772Z,16.36
2022-08-21T02:53:43.504Z,16.34
2022-08-21T02:56:12.934Z,16.34
2022-08-21T02:58:42.900Z,16.38
2022-08-21T03:01:10.586Z,16.39
2022-08-21T03:03:40.236Z,16.43
2022-08-21T03:06:09.254Z,16.44
2022-08-21T03:08:37.177Z,16.44
2022-08-21T03:11:04.374Z,16.44
2022-08-21T03:13:33.745Z,16.43
2022-08-21T03:16:00.908Z,16.45
2022-08-21T03:18:27.812Z,16.47
2022-08-21T03:20:54.774Z,16.51
2022-08-21T03:23:21.945Z,16.52
2022-08-21T03:25:49.504Z,16.55
2022-08-21T03:28:21.116Z,16.60
2022-08-21T03:30:50.693Z,16.60
2022-08-21T03:33:20.777Z,16.58
2022-08-21T03:36:01.678Z,16.61
2022-08-21T03:38:31.650Z,16.59
2022-08-21T03:40:59.130Z,16.60
2022-08-21T03:43:25.955Z,16.65
2022-08-21T03:45:52.817Z,16.66
2022-08-21T03:48:20.165Z,16.70
2022-08-21T03:50:48.293Z,16.71
2022-08-21T03:53:17.257Z,16.70
2022-08-21T03:55:47.525Z,16.72
2022-08-21T03:58:17.714Z,16.75
2022-08-21T04:00:49.939Z,16.80
2022-08-21T04:03:17.183Z,16.87
2022-08-21T04:05:46.477Z,16.75
2022-08-21T04:08:15.560Z,16.76
2022-08-21T04:10:44.767Z,16.80
2022-08-21T04:13:12.168Z,16.84
2022-08-21T04:15:39.478Z,16.86
2022-08-21T04:18:06.709Z,16.88
2022-08-21T04:20:34.636Z,16.90
2022-08-21T04:23:02.588Z,16.90
2022-08-21T04:25:30.107Z,16.94
2022-08-21T04:27:57.248Z,16.98
2022-08-21T04:30:28.083Z,16.96
2022-08-21T04:32:58.407Z,17.03
2022-08-21T04:35:27.904Z,17.05
2022-08-21T04:37:55.344Z,17.08
2022-08-21T04:40:25.021Z,17.10
2022-08-21T04:42:55.300Z,17.12
2022-08-21T04:45:26.098Z,17.17
2022-08-21T04:47:54.961Z,17.17
2022-08-21T04:50:25.901Z,17.18
2022-08-21T04:52:53.888Z,17.18
2022-08-21T04:55:21.415Z,17.21
2022-08-21T04:57:49.497Z,17.22
2022-08-21T05:00:19.809Z,17.30
2022-08-21T05:02:49.198Z,17.33
2022-08-21T05:05:17.284Z,17.33
2022-08-21T05:07:45.889Z,17.33
2022-08-21T05:10:15.037Z,17.38
2022-08-21T05:12:43.883Z,17.42
2022-08-21T05:15:14.935Z,17.45
2022-08-21T05:17:42.892Z,17.48
2022-08-21T05:20:14.654Z,17.54
2022-08-21T05:22:41.689Z,17.54
2022-08-21T05:25:10.879Z,17.60
2022-08-21T05:27:39.692Z,17.64
2022-08-21T05:30:11.118Z,17.67
2022-08-21T05:32:38.348Z,17.69
2022-08-21T05:35:07.886Z,17.77
2022-08-21T05:37:35.438Z,17.84
2022-08-21T05:40:04.746Z,17.88
2022-08-21T05:42:54.696Z,17.95
2022-08-21T05:45:41.944Z,18.04
2022-08-21T05:48:12.354Z,18.09
2022-08-21T05:50:39.647Z,18.16
2022-08-21T05:53:08.072Z,18.21
2022-08-21T05:55:41.515Z,18.27
2022-08-21T05:58:12.781Z,18.36
2022-08-21T06:00:39.905Z,18.41
2022-08-21T06:03:17.948Z,18.49
2022-08-21T06:05:45.022Z,18.50
2022-08-21T06:08:12.636Z,18.58
2022-08-21T06:10:39.920Z,18.66
2022-08-21T06:13:06.860Z,18.71
2022-08-21T06:15:33.945Z,18.79
2022-08-21T06:18:00.861Z,18.84
2022-08-21T06:20:28.375Z,18.92
2022-08-21T06:22:55.428Z,19.00
2022-08-21T06:25:22.653Z,19.09
2022-08-21T06:27:50.802Z,19.20
2022-08-21T06:30:18.458Z,19.31
2022-08-21T06:32:45.401Z,19.40
2022-08-21T06:35:12.551Z,19.48
2022-08-21T06:37:39.440Z,19.56
2022-08-21T06:40:12.586Z,19.64
2022-08-21T06:42:41.453Z,19.72
2022-08-21T06:45:11.027Z,19.83
2022-08-21T06:47:38.017Z,19.90
2022-08-21T06:50:08.645Z,19.94
2022-08-21T06:52:37.162Z,20.03
2022-08-21T06:55:07.113Z,20.11
2022-08-21T06:57:34.522Z,20.17
2022-08-21T07:00:01.486Z,20.23
2022-08-21T07:02:30.672Z,20.28
2022-08-21T07:04:59.170Z,20.36
2022-08-21T07:07:26.199Z,20.43
2022-08-21T07:09:53.053Z,20.53
2022-08-21T07:12:20.880Z,20.63
2022-08-21T07:14:47.941Z,20.73
2022-08-21T07:17:14.791Z,20.79
2022-08-21T07:19:41.659Z,20.86
2022-08-21T07:22:08.645Z,20.92
2022-08-21T07:24:35.482Z,21.01
2022-08-21T07:27:02.427Z,21.07
2022-08-21T07:29:31.747Z,21.14
2022-08-21T07:31:58.673Z,21.21
2022-08-21T07:34:25.581Z,21.27
2022-08-21T07:36:53.185Z,21.34
2022-08-21T07:39:20.078Z,21.41
2022-08-21T07:41:46.947Z,21.47
2022-08-21T07:44:13.946Z,21.54
2022-08-21T07:46:41.177Z,21.64
2022-08-21T07:49:08.040Z,21.70
2022-08-21T07:51:35.200Z,21.78
2022-08-21T07:54:04.777Z,21.85
2022-08-21T07:56:33.051Z,21.97
2022-08-21T07:59:00.013Z,22.02
2022-08-21T08:01:26.993Z,22.10
2022-08-21T08:03:53.905Z,22.25
2022-08-21T08:06:20.821Z,22.38
2022-08-21T08:08:48.370Z,22.46
2022-08-21T08:11:16.357Z,22.54
2022-08-21T08:13:49.665Z,22.66
2022-08-21T08:16:17.253Z,22.81
2022-08-21T08:18:45.401Z,22.94
2022-08-21T08:21:13.927Z,23.02
2022-08-21T08:23:40.854Z,23.10
2022-08-21T08:26:07.703Z,23.19
2022-08-21T08:28:34.630Z,23.33
2022-08-21T08:31:01.977Z,23.48
2022-08-21T08:33:28.821Z,23.59
2022-08-21T08:36:01.356Z,23.69
2022-08-21T08:38:31.569Z,23.76
2022-08-21T08:41:16.887Z,23.92
2022-08-21T08:43:50.454Z,23.93
2022-08-21T08:46:25.501Z,24.07
2022-08-21T08:48:58.161Z,24.21
2022-08-21T08:51:46.533Z,24.47
2022-08-21T08:54:20.507Z,24.30
2022-08-21T08:56:48.657Z,24.23
2022-08-21T08:59:18.035Z,24.16
2022-08-21T09:01:45.056Z,24.19
2022-08-21T09:04:13.625Z,24.20
2022-08-21T09:06:57.028Z,24.22
2022-08-21T09:09:23.928Z,24.28
2022-08-21T09:12:02.669Z,24.33
2022-08-21T09:14:47.746Z,24.49
2022-08-21T09:17:23.231Z,24.45
2022-08-21T09:19:52.609Z,24.47
2022-08-21T09:22:50.784Z,24.69
2022-08-21T09:25:27.056Z,24.88
2022-08-21T09:27:54.552Z,24.83
2022-08-21T09:30:29.913Z,25.07
2022-08-21T09:32:57.770Z,25.25
2022-08-21T09:35:25.763Z,25.46
2022-08-21T09:37:59.234Z,25.68
2022-08-21T09:40:38.479Z,25.56
2022-08-21T09:43:19.738Z,25.47
2022-08-21T09:45:48.934Z,25.40
2022-08-21T09:48:27.122Z,25.31
2022-08-21T09:51:16.167Z,25.27
2022-08-21T09:54:13.665Z,25.23
2022-08-21T09:57:21.112Z,25.14
2022-08-21T09:59:48.071Z,24.85
2022-08-21T10:02:27.248Z,24.80
2022-08-21T10:04:58.074Z,24.70
2022-08-21T10:07:28.839Z,24.59
2022-08-21T10:10:08.483Z,24.60
2022-08-21T10:12:55.638Z,24.68
2022-08-21T10:15:41.220Z,24.74
2022-08-21T10:18:10.780Z,24.83
2022-08-21T10:20:45.844Z,24.81
2022-08-21T10:23:30.622Z,24.86
2022-08-21T10:26:14.277Z,24.81
2022-08-21T10:28:47.572Z,24.83
2022-08-21T10:32:03.281Z,24.84
2022-08-21T10:34:44.366Z,24.75
2022-08-21T10:37:46.974Z,24.85
2022-08-21T10:40:27.374Z,24.75
2022-08-21T10:42:57.305Z,24.72
2022-08-21T10:45:49.459Z,24.75
2022-08-21T10:48:37.816Z,24.85
2022-08-21T10:51:29.540Z,24.92
2022-08-21T10:54:25.298Z,24.87
2022-08-21T10:57:00.533Z,24.79
2022-08-21T11:00:02.833Z,24.81
2022-08-21T11:02:47.382Z,24.82
2022-08-21T11:05:38.285Z,24.90
2022-08-21T11:08:16.397Z,24.89
2022-08-21T11:10:59.168Z,24.88
2022-08-21T11:13:44.607Z,24.92
2022-08-21T11:16:31.505Z,24.95
2022-08-21T11:19:06.907Z,24.92
2022-08-21T11:21:45.765Z,24.99
2022-08-21T11:24:50.196Z,24.97
2022-08-21T11:27:41.376Z,25.01
2022-08-21T11:30:09.554Z,24.91
2022-08-21T11:33:22.655Z,25.03
2022-08-21T11:35:58.314Z,24.94
2022-08-21T11:38:50.930Z,25.06
2022-08-21T11:41:36.594Z,25.02
2022-08-21T11:44:24.545Z,24.92
2022-08-21T11:47:09.929Z,24.85
2022-08-21T11:50:04.169Z,24.80
2022-08-21T11:52:55.251Z,24.81
2022-08-21T11:55:32.760Z,24.82
2022-08-21T11:58:09.067Z,24.77
2022-08-21T12:00:42.650Z,24.66
2022-08-21T12:03:23.892Z,24.68
2022-08-21T12:05:57.898Z,24.69
2022-08-21T12:08:37.393Z,24.70
2022-08-21T12:11:30.726Z,24.76
2022-08-21T12:14:15.150Z,24.68
2022-08-21T12:16:44.843Z,24.66
2022-08-21T12:19:22.197Z,24.67
2022-08-21T12:22:11.738Z,24.73
2022-08-21T12:24:38.531Z,24.71
2022-08-21T12:27:31.265Z,24.81
2022-08-21T12:30:02.479Z,24.77
2022-08-21T12:32:42.796Z,24.90
2022-08-21T12:35:25.642Z,24.91
2022-08-21T12:38:10.526Z,24.98
2022-08-21T12:40:48.618Z,25.02
2022-08-21T12:43:21.266Z,25.05
2022-08-21T12:45:52.072Z,25.03
2022-08-21T12:48:26.375Z,25.09
2022-08-21T12:51:06.271Z,25.26
2022-08-21T12:53:49.895Z,25.36
2022-08-21T12:56:28.345Z,25.36
2022-08-21T12:59:02.895Z,25.45
2022-08-21T13:01:41.930Z,25.53
2022-08-21T13:04:16.811Z,25.60
2022-08-21T13:06:50.130Z,25.65
2022-08-21T13:09:20.935Z,25.66
2022-08-21T13:11:49.793Z,25.63
2022-08-21T13:14:40.803Z,25.75
2022-08-21T13:17:23.319Z,25.58
2022-08-21T13:20:00.971Z,25.69
2022-08-21T13:22:33.829Z,25.78
2022-08-21T13:25:07.148Z,25.82
2022-08-21T13:27:35.405Z,25.82
2022-08-21T13:30:14.113Z,25.87
2022-08-21T13:32:47.158Z,25.88
2022-08-21T13:35:23.949Z,25.86
2022-08-21T13:37:53.065Z,25.72
2022-08-21T13:40:25.714Z,25.74
2022-08-21T13:42:53.660Z,25.76
2022-08-21T13:45:33.686Z,25.95
2022-08-21T13:48:06.373Z,25.91
2022-08-21T13:50:38.245Z,25.88
2022-08-21T13:53:20.009Z,25.81
2022-08-21T13:55:46.628Z,25.91
2022-08-21T13:58:13.754Z,25.60
2022-08-21T14:00:51.769Z,25.66
2022-08-21T14:03:46.515Z,25.75
2022-08-21T14:06:18.150Z,25.64
2022-08-21T14:08:59.942Z,25.68
2022-08-21T14:11:32.346Z,25.59
2022-08-21T14:14:02.597Z,25.61
2022-08-21T14:16:43.126Z,25.57
2022-08-21T14:19:31.794Z,25.47
2022-08-21T14:21:58.713Z,25.36
2022-08-21T14:24:31.973Z,25.34
2022-08-21T14:27:07.618Z,25.24
2022-08-21T14:29:41.364Z,25.27
2022-08-21T14:32:24.673Z,25.18
2022-08-21T14:34:52.735Z,25.02
2022-08-21T14:37:21.848Z,25.00
2022-08-21T14:39:48.701Z,25.04
2022-08-21T14:42:15.544Z,25.04
2022-08-21T14:44:42.347Z,25.05
2022-08-21T14:47:10.137Z,25.03
2022-08-21T14:49:37.141Z,24.98
2022-08-21T14:52:04.559Z,24.95
2022-08-21T14:54:33.269Z,24.90
2022-08-21T14:57:06.711Z,24.90
2022-08-21T14:59:34.261Z,24.83
2022-08-21T15:02:02.004Z,24.79
2022-08-21T15:04:28.969Z,24.72
2022-08-21T15:06:55.868Z,24.69
2022-08-21T15:09:23.513Z,24.69
2022-08-21T15:11:50.852Z,24.73
2022-08-21T15:14:27.507Z,24.98
2022-08-21T15:16:54.762Z,25.22
2022-08-21T15:19:21.687Z,25.34
2022-08-21T15:21:48.739Z,25.37
2022-08-21T15:24:16.031Z,25.29
2022-08-21T15:26:43.910Z,25.15
2022-08-21T15:29:11.170Z,25.05
2022-08-21T15:31:55.012Z,25.03
2022-08-21T15:34:23.323Z,24.84
2022-08-21T15:36:56.958Z,24.75
2022-08-21T15:39:30.204Z,24.65
2022-08-21T15:41:59.727Z,24.57
2022-08-21T15:44:30.321Z,24.49
2022-08-21T15:46:57.973Z,24.43
2022-08-21T15:49:25.034Z,24.41
2022-08-21T15:51:52.522Z,24.39
2022-08-21T15:54:19.344Z,24.37
2022-08-21T15:56:52.798Z,24.35
2022-08-21T15:59:23.114Z,24.27
2022-08-21T16:01:52.067Z,24.18
2022-08-21T16:04:27.958Z,24.16
2022-08-21T16:07:01.839Z,24.06
2022-08-21T16:09:30.875Z,23.99
2022-08-21T16:11:59.254Z,23.94
2022-08-21T16:14:26.101Z,23.89
2022-08-21T16:16:54.087Z,23.83
2022-08-21T16:19:21.925Z,23.77
2022-08-21T16:21:48.970Z,23.73
2022-08-21T16:24:15.833Z,23.69
2022-08-21T16:26:43.183Z,23.66
2022-08-21T16:29:10.601Z,23.63
2022-08-21T16:31:37.660Z,23.59
2022-08-21T16:34:04.686Z,23.58
2022-08-21T16:36:31.544Z,23.54
2022-08-21T16:39:00.948Z,23.51
2022-08-21T16:41:34.489Z,23.50
2022-08-21T16:44:01.751Z,23.45
2022-08-21T16:46:31.050Z,23.43
2022-08-21T16:48:57.854Z,23.41
2022-08-21T16:51:24.820Z,23.39
2022-08-21T16:53:52.051Z,23.37
2022-08-21T16:56:19.042Z,23.35
2022-08-21T16:58:49.496Z,23.32
2022-08-21T17:01:19.841Z,23.30
2022-08-21T17:03:51.237Z,23.25
2022-08-21T17:06:19.182Z,23.22
2022-08-21T17:08:46.833Z,23.19
2022-08-21T17:11:37.401Z,23.24
2022-08-21T17:14:15.050Z,23.16
2022-08-21T17:16:45.505Z,23.09
2022-08-21T17:19:13.424Z,23.05
2022-08-21T17:21:40.389Z,23.09
2022-08-21T17:24:07.590Z,23.09
2022-08-21T17:26:34.990Z,23.06
2022-08-21T17:29:01.949Z,23.04
2022-08-21T17:31:30.430Z,23.04
2022-08-21T17:33:57.746Z,22.99
2022-08-21T17:36:27.431Z,22.98
2022-08-21T17:38:54.357Z,22.94
2022-08-21T17:41:22.438Z,22.93
2022-08-21T17:43:50.228Z,22.92
2022-08-21T17:46:26.934Z,22.91
2022-08-21T17:48:54.284Z,22.87
2022-08-21T17:51:22.049Z,22.87
2022-08-21T17:53:48.927Z,22.83
2022-08-21T17:56:17.973Z,22.82
2022-08-21T17:58:51.819Z,22.83
2022-08-21T18:01:19.668Z,22.78
2022-08-21T18:03:47.445Z,22.75
2022-08-21T18:06:17.667Z,22.72
2022-08-21T18:08:45.912Z,22.68
2022-08-21T18:11:16.001Z,22.68
2022-08-21T18:13:53.098Z,22.67
2022-08-21T18:16:21.019Z,22.64
2022-08-21T18:18:49.280Z,22.64
2022-08-21T18:21:16.390Z,22.66
2022-08-21T18:23:44.939Z,22.63
2022-08-21T18:26:15.765Z,22.62
2022-08-21T18:28:44.295Z,22.52
2022-08-21T18:31:12.164Z,22.48
2022-08-21T18:33:52.851Z,22.44
2022-08-21T18:36:25.326Z,22.41
2022-08-21T18:38:52.541Z,22.37
2022-08-21T18:41:19.450Z,22.30
2022-08-21T18:43:46.490Z,22.26
2022-08-21T18:46:13.573Z,22.21
2022-08-21T18:48:42.508Z,22.19
2022-08-21T18:51:11.365Z,22.16
2022-08-21T18:53:38.789Z,22.09
2022-08-21T18:56:08.392Z,22.05
2022-08-21T18:58:44.421Z,22.01
2022-08-21T19:01:12.178Z,21.97
2022-08-21T19:03:39.899Z,21.98
2022-08-21T19:06:09.793Z,21.95
2022-08-21T19:08:38.997Z,21.92
2022-08-21T19:11:06.642Z,21.87
2022-08-21T19:13:34.633Z,21.83
2022-08-21T19:16:05.233Z,21.80
2022-08-21T19:18:40.462Z,21.78
2022-08-21T19:21:07.639Z,21.74
2022-08-21T19:23:35.118Z,21.74
2022-08-21T19:26:23.707Z,21.73
2022-08-21T19:28:54.682Z,21.73
2022-08-21T19:31:29.897Z,21.71
2022-08-21T19:34:06.325Z,21.70
2022-08-21T19:36:35.192Z,21.65
2022-08-21T19:39:02.077Z,21.65
2022-08-21T19:41:39.116Z,21.59
2022-08-21T19:44:08.566Z,21.58
2022-08-21T19:46:37.468Z,21.50
2022-08-21T19:49:08.551Z,21.46
2022-08-21T19:51:37.469Z,21.45
2022-08-21T19:54:05.862Z,21.68
2022-08-21T19:56:38.401Z,21.90
2022-08-21T19:59:09.295Z,22.02
2022-08-21T20:01:36.586Z,22.15
2022-08-21T20:04:10.995Z,22.18
2022-08-21T20:06:47.438Z,22.22
2022-08-21T20:09:16.346Z,22.28
2022-08-21T20:11:47.924Z,22.36
2022-08-21T20:14:19.294Z,22.34
2022-08-21T20:16:47.502Z,22.33
2022-08-21T20:19:14.891Z,22.30
2022-08-21T20:21:43.629Z,22.34
2022-08-21T20:24:28.746Z,22.30
2022-08-21T20:26:56.213Z,22.28
2022-08-21T20:29:28.795Z,22.28
2022-08-21T20:32:02.975Z,22.26
2022-08-21T20:34:32.342Z,22.23
2022-08-21T20:37:01.353Z,22.24
2022-08-21T20:39:28.299Z,22.25
2022-08-21T20:41:55.640Z,22.17
2022-08-21T20:44:27.307Z,22.10
2022-08-21T20:46:54.350Z,22.40
2022-08-21T20:49:27.898Z,22.24
2022-08-21T20:51:57.181Z,22.11
2022-08-21T20:54:46.094Z,22.11
2022-08-21T20:57:14.026Z,22.05
2022-08-21T20:59:51.785Z,22.15
2022-08-21T21:02:49.710Z,22.19
2022-08-21T21:05:39.560Z,22.08
2022-08-21T21:08:20.307Z,22.06
2022-08-21T21:10:54.390Z,21.98
2022-08-21T21:13:28.337Z,21.99
2022-08-21T21:16:02.765Z,21.87
2022-08-21T21:18:41.564Z,21.94
2022-08-21T21:21:32.473Z,21.92
2022-08-21T21:24:19.085Z,21.89
2022-08-21T21:26:52.344Z,21.80
2022-08-21T21:29:24.929Z,21.73
2022-08-21T21:31:54.276Z,21.67
2022-08-21T21:34:26.657Z,21.71
2022-08-21T21:37:02.932Z,21.63
2022-08-21T21:42:31.199Z,21.76
2022-08-21T21:45:48.048Z,21.75
2022-08-21T21:48:28.455Z,21.65
2022-08-21T21:51:00.880Z,21.54
2022-08-21T21:53:45.863Z,21.58
2022-08-21T21:56:40.420Z,21.62
2022-08-21T21:59:37.168Z,21.64
2022-08-21T22:02:17.023Z,21.56
2022-08-21T22:05:06.124Z,21.60
2022-08-21T22:07:35.547Z,21.42
2022-08-21T22:10:20.054Z,21.49
2022-08-21T22:13:38.516Z,21.54
2022-08-21T22:16:25.070Z,21.46
2022-08-21T22:18:58.916Z,21.50
2022-08-21T22:21:37.272Z,21.61
2022-08-21T22:24:16.793Z,21.63
2022-08-21T22:26:51.029Z,21.60
2022-08-21T22:29:21.887Z,21.59
2022-08-21T22:32:06.930Z,21.69
2022-08-21T22:34:34.268Z,21.53
2022-08-21T22:37:10.109Z,21.56
2022-08-21T22:39:42.009Z,21.57
2022-08-21T22:42:15.791Z,21.40
2022-08-21T22:45:12.149Z,21.39
2022-08-21T22:47:46.038Z,21.14
2022-08-21T22:50:22.086Z,21.05
2022-08-21T22:52:54.884Z,20.90
2022-08-21T22:55:26.238Z,20.85
2022-08-21T22:58:21.079Z,20.84
2022-08-21T23:01:17.110Z,20.66
2022-08-21T23:03:48.105Z,20.57
2022-08-21T23:06:24.468Z,20.66
2022-08-21T23:08:54.411Z,20.43
2022-08-21T23:11:45.791Z,20.43
2022-08-21T23:14:17.969Z,20.36
2022-08-21T23:17:00.118Z,20.43
2022-08-21T23:19:26.749Z,20.45
2022-08-21T23:22:06.115Z,20.35
2022-08-21T23:24:46.739Z,20.25
2022-08-21T23:28:03.832Z,20.31
2022-08-21T23:30:55.161Z,20.28
2022-08-21T23:34:09.251Z,20.30
2022-08-21T23:37:12.519Z,20.27
2022-08-21T23:40:02.833Z,20.24
2022-08-21T23:42:57.532Z,20.23
2022-08-21T23:45:56.557Z,20.17
2022-08-21T23:49:05.914Z,20.21
2022-08-21T23:51:52.985Z,20.16
2022-08-21T23:54:27.021Z,20.12
2022-08-21T23:57:31.574Z,20.18
